createdAt,value
2023-01-28T00:00:36.142Z,44.47
2023-01-28T00:03:02.483Z,44.58
2023-01-28T00:05:29.995Z,44.55
2023-01-28T00:07:57.856Z,44.50
2023-01-28T00:10:24.192Z,44.24
2023-01-28T00:12:50.941Z,44.49
2023-01-28T00:15:17.283Z,44.51
2023-01-28T00:17:43.679Z,44.37
2023-01-28T00:20:11.958Z,44.36
2023-01-28T00:22:38.285Z,44.28
2023-01-28T00:25:05.137Z,44.44
2023-01-28T00:27:31.485Z,44.36
2023-01-28T00:29:57.806Z,44.34
2023-01-28T00:32:24.139Z,44.12
2023-01-28T00:34:52.743Z,44.16
2023-01-28T00:37:19.194Z,44.06
2023-01-28T00:39:45.513Z,44.11
2023-01-28T00:42:11.879Z,44.07
2023-01-28T00:44:38.249Z,44.11
2023-01-28T00:47:05.162Z,44.12
2023-01-28T00:49:31.489Z,44.24
2023-01-28T00:51:57.840Z,44.12
2023-01-28T00:54:24.175Z,44.13
2023-01-28T00:56:50.503Z,44.22
2023-01-28T00:59:16.833Z,44.22
2023-01-28T01:01:43.779Z,44.32
2023-01-28T01:04:10.145Z,44.09
2023-01-28T01:06:37.278Z,43.88
2023-01-28T01:09:06.137Z,44.45
2023-01-28T01:11:34.091Z,44.11
2023-01-28T01:14:00.563Z,44.09
2023-01-28T01:16:28.567Z,44.22
2023-01-28T01:18:54.950Z,44.21
2023-01-28T01:21:22.092Z,44.13
2023-01-28T01:23:48.423Z,44.17
2023-01-28T01:26:14.761Z,44.22
2023-01-28T01:28:41.259Z,44.29
2023-01-28T01:31:08.900Z,44.23
2023-01-28T01:33:35.286Z,44.34
2023-01-28T01:36:01.684Z,44.28
2023-01-28T01:38:28.223Z,44.31
2023-01-28T01:40:58.657Z,44.14
2023-01-28T01:43:24.999Z,44.32
2023-01-28T01:45:53.308Z,44.12
2023-01-28T01:48:20.917Z,44.33
2023-01-28T01:50:49.645Z,44.20
2023-01-28T01:53:16.963Z,44.28
2023-01-28T01:55:43.687Z,44.25
2023-01-28T01:58:11.790Z,44.27
2023-01-28T02:00:38.467Z,44.22
2023-01-28T02:03:04.853Z,44.23
2023-01-28T02:05:31.195Z,44.29
2023-01-28T02:08:20.398Z,44.37
2023-01-28T02:10:47.118Z,44.38
2023-01-28T02:13:13.456Z,44.08
2023-01-28T02:15:39.782Z,44.31
2023-01-28T02:18:06.143Z,44.43
2023-01-28T02:20:44.615Z,44.25
2023-01-28T02:23:14.259Z,44.32
2023-01-28T02:25:43.667Z,44.07
2023-01-28T02:28:19.259Z,44.14
2023-01-28T02:30:53.082Z,44.05
2023-01-28T02:33:22.360Z,44.30
2023-01-28T02:35:49.648Z,44.21
2023-01-28T02:38:34.943Z,44.19
2023-01-28T02:41:02.079Z,44.19
2023-01-28T02:43:33.124Z,44.06
2023-01-28T02:46:18.142Z,43.99
2023-01-28T02:48:44.545Z,44.16
2023-01-28T02:51:15.143Z,44.22
2023-01-28T02:53:45.127Z,44.12
2023-01-28T02:56:29.254Z,44.26
2023-01-28T02:59:22.120Z,44.30
2023-01-28T03:01:49.204Z,44.20
2023-01-28T03:04:20.693Z,44.22
2023-01-28T03:06:49.275Z,44.15
2023-01-28T03:09:26.915Z,44.12
2023-01-28T03:12:14.045Z,44.19
2023-01-28T03:14:59.186Z,44.24
2023-01-28T03:17:46.531Z,44.24
2023-01-28T03:20:31.738Z,44.24
2023-01-28T03:23:17.292Z,44.25
2023-01-28T03:26:02.927Z,44.14
2023-01-28T03:28:48.173Z,44.29
2023-01-28T03:31:33.933Z,44.30
2023-01-28T03:34:19.689Z,44.36
2023-01-28T03:36:53.395Z,44.36
2023-01-28T03:39:35.409Z,44.22
2023-01-28T03:42:03.995Z,44.38
2023-01-28T03:44:49.165Z,44.42
2023-01-28T03:47:16.688Z,44.19
2023-01-28T03:49:44.590Z,44.26
2023-01-28T03:52:11.963Z,44.43
2023-01-28T03:54:38.316Z,44.33
2023-01-28T03:57:06.106Z,44.26
2023-01-28T03:59:32.830Z,44.28
2023-01-28T04:01:59.444Z,44.32
2023-01-28T04:04:25.874Z,44.27
2023-01-28T04:06:54.814Z,44.23
2023-01-28T04:09:40.675Z,44.38
2023-01-28T04:12:29.670Z,44.41
2023-01-28T04:14:55.986Z,44.23
2023-01-28T04:17:27.320Z,44.21
2023-01-28T04:19:53.663Z,44.18
2023-01-28T04:22:21.229Z,44.19
2023-01-28T04:24:47.556Z,44.26
2023-01-28T04:27:15.115Z,44.34
2023-01-28T04:29:41.570Z,44.36
2023-01-28T04:32:31.191Z,44.15
2023-01-28T04:35:04.653Z,44.17
2023-01-28T04:37:48.703Z,44.17
2023-01-28T04:40:33.661Z,44.39
2023-01-28T04:43:09.515Z,44.33
2023-01-28T04:46:08.789Z,44.31
2023-01-28T04:48:47.727Z,44.31
2023-01-28T04:51:32.687Z,44.31
2023-01-28T04:54:16.388Z,44.31
2023-01-28T04:56:42.988Z,44.25
2023-01-28T04:59:09.823Z,44.39
2023-01-28T05:01:36.166Z,44.42
2023-01-28T05:04:05.581Z,44.40
2023-01-28T05:06:33.892Z,44.33
2023-01-28T05:09:05.777Z,44.27
2023-01-28T05:11:32.478Z,44.43
2023-01-28T05:14:03.245Z,44.35
2023-01-28T05:16:38.275Z,44.39
2023-01-28T05:19:04.667Z,44.22
2023-01-28T05:21:38.074Z,44.29
2023-01-28T05:24:09.009Z,44.14
2023-01-28T05:26:35.496Z,44.21
2023-01-28T05:29:01.871Z,44.20
2023-01-28T05:31:28.528Z,44.32
2023-01-28T05:33:55.986Z,44.19
2023-01-28T05:36:23.109Z,44.28
2023-01-28T05:38:49.559Z,44.13
2023-01-28T05:41:15.887Z,44.28
2023-01-28T05:43:44.078Z,44.25
2023-01-28T05:46:45.373Z,44.33
2023-01-28T05:49:37.815Z,44.33
2023-01-28T05:52:24.134Z,44.35
2023-01-28T05:54:50.517Z,44.24
2023-01-28T05:57:17.081Z,44.35
2023-01-28T05:59:43.606Z,44.06
2023-01-28T06:02:09.986Z,44.26
2023-01-28T06:04:36.493Z,44.26
2023-01-28T06:07:02.860Z,44.17
2023-01-28T06:09:29.465Z,44.20
2023-01-28T06:11:55.899Z,44.24
2023-01-28T06:14:23.235Z,44.23
2023-01-28T06:17:16.276Z,44.23
2023-01-28T06:20:06.432Z,44.14
2023-01-28T06:22:32.825Z,44.22
2023-01-28T06:25:00.382Z,44.26
2023-01-28T06:27:27.486Z,44.27
2023-01-28T06:29:53.810Z,44.25
2023-01-28T06:32:20.959Z,44.38
2023-01-28T06:34:47.300Z,44.38
2023-01-28T06:37:13.799Z,44.30
2023-01-28T06:39:40.117Z,44.21
2023-01-28T06:42:06.451Z,44.29
2023-01-28T06:44:32.838Z,44.21
2023-01-28T06:46:59.162Z,44.17
2023-01-28T06:49:25.485Z,44.17
2023-01-28T06:51:51.795Z,44.35
2023-01-28T06:54:18.122Z,44.18
2023-01-28T06:56:44.433Z,44.31
2023-01-28T06:59:10.763Z,44.21
2023-01-28T07:01:37.163Z,44.30
2023-01-28T07:04:03.567Z,44.34
2023-01-28T07:06:29.897Z,44.30
2023-01-28T07:08:56.235Z,44.21
2023-01-28T07:11:22.583Z,44.24
2023-01-28T07:13:48.933Z,44.29
2023-01-28T07:16:15.268Z,44.11
2023-01-28T07:18:41.597Z,44.26
2023-01-28T07:21:07.923Z,44.08
2023-01-28T07:23:34.274Z,44.10
2023-01-28T07:26:01.321Z,44.12
2023-01-28T07:28:27.698Z,44.13
2023-01-28T07:30:54.082Z,44.16
2023-01-28T07:33:20.469Z,44.09
2023-01-28T07:35:47.144Z,44.19
2023-01-28T07:38:13.478Z,44.16
2023-01-28T07:40:39.822Z,44.22
2023-01-28T07:43:07.193Z,44.12
2023-01-28T07:45:37.395Z,44.23
2023-01-28T07:48:04.614Z,44.14
2023-01-28T07:50:31.731Z,44.34
2023-01-28T07:52:58.159Z,44.16
2023-01-28T07:55:24.514Z,44.19
2023-01-28T07:57:57.445Z,44.14
2023-01-28T08:00:23.941Z,44.03
2023-01-28T08:02:50.336Z,44.07
2023-01-28T08:05:17.463Z,44.10
2023-01-28T08:07:44.010Z,44.18
2023-01-28T08:10:10.997Z,44.30
2023-01-28T08:12:37.586Z,44.25
2023-01-28T08:15:05.917Z,44.12
2023-01-28T08:17:32.233Z,44.17
2023-01-28T08:19:58.563Z,44.15
2023-01-28T08:22:25.502Z,44.06
2023-01-28T08:24:51.828Z,44.25
2023-01-28T08:27:18.151Z,44.21
2023-01-28T08:29:44.503Z,44.30
2023-01-28T08:32:10.948Z,44.29
2023-01-28T08:34:37.277Z,44.46
2023-01-28T08:37:05.743Z,44.48
2023-01-28T08:39:32.087Z,44.36
2023-01-28T08:41:58.391Z,44.32
2023-01-28T08:44:24.732Z,44.37
2023-01-28T08:46:51.065Z,44.42
2023-01-28T08:49:17.468Z,44.27
2023-01-28T08:51:43.772Z,44.35
2023-01-28T08:54:10.101Z,44.57
2023-01-28T08:56:36.528Z,44.62
2023-01-28T08:59:02.858Z,44.56
2023-01-28T09:01:29.361Z,44.87
2023-01-28T09:03:56.157Z,45.16
2023-01-28T09:06:22.487Z,45.28
2023-01-28T09:08:48.807Z,45.21
2023-01-28T09:11:15.131Z,45.39
2023-01-28T09:13:41.588Z,45.64
2023-01-28T09:16:08.211Z,45.65
2023-01-28T09:18:34.540Z,46.22
2023-01-28T09:21:00.963Z,46.60
2023-01-28T09:23:27.301Z,46.91
2023-01-28T09:25:59.422Z,47.14
2023-01-28T09:28:25.763Z,47.07
2023-01-28T09:30:52.158Z,46.87
2023-01-28T09:33:18.499Z,44.75
2023-01-28T09:35:44.941Z,43.15
2023-01-28T09:38:11.253Z,41.61
2023-01-28T09:40:38.307Z,41.11
2023-01-28T09:43:10.304Z,41.87
2023-01-28T09:45:37.602Z,42.26
2023-01-28T09:48:04.763Z,41.99
2023-01-28T09:50:35.442Z,42.81
2023-01-28T09:53:11.018Z,43.05
2023-01-28T09:55:40.876Z,41.11
2023-01-28T09:58:15.002Z,41.46
2023-01-28T10:00:50.649Z,42.81
2023-01-28T10:03:23.153Z,41.35
2023-01-28T10:06:02.507Z,41.56
2023-01-28T10:08:36.430Z,43.00
2023-01-28T10:11:10.860Z,41.89
2023-01-28T10:13:43.437Z,42.31
2023-01-28T10:16:12.742Z,42.30
2023-01-28T10:18:44.044Z,42.77
2023-01-28T10:21:29.108Z,43.00
2023-01-28T10:23:58.438Z,43.06
2023-01-28T10:26:26.764Z,34.08
2023-01-28T10:29:00.711Z,32.22
2023-01-28T10:31:30.298Z,34.68
2023-01-28T10:33:56.700Z,38.16
2023-01-28T10:36:23.012Z,38.36
2023-01-28T10:38:49.362Z,37.72
2023-01-28T10:41:17.118Z,38.12
2023-01-28T10:43:43.697Z,38.75
2023-01-28T10:46:14.392Z,40.39
2023-01-28T10:48:45.114Z,39.06
2023-01-28T10:51:11.443Z,39.94
2023-01-28T10:53:37.764Z,40.42
2023-01-28T10:56:04.908Z,40.93
2023-01-28T10:58:31.635Z,40.92
2023-01-28T11:00:59.603Z,41.12
2023-01-28T11:03:30.732Z,41.42
2023-01-28T11:05:57.155Z,41.42
2023-01-28T11:08:24.458Z,41.58
2023-01-28T11:10:50.785Z,41.53
2023-01-28T11:13:18.727Z,41.45
2023-01-28T11:15:48.826Z,41.75
2023-01-28T11:18:22.670Z,41.67
2023-01-28T11:20:49.691Z,42.11
2023-01-28T11:23:19.840Z,42.24
2023-01-28T11:25:46.374Z,42.45
2023-01-28T11:28:17.431Z,42.34
2023-01-28T11:30:43.791Z,42.65
2023-01-28T11:33:39.502Z,42.46
2023-01-28T11:36:15.834Z,43.20
2023-01-28T11:38:49.010Z,43.08
2023-01-28T11:41:15.331Z,43.50
2023-01-28T11:43:41.658Z,43.48
2023-01-28T11:46:08.169Z,43.81
2023-01-28T11:48:34.529Z,43.87
2023-01-28T11:51:19.383Z,44.12
2023-01-28T11:53:48.550Z,43.96
2023-01-28T11:56:20.172Z,44.39
2023-01-28T11:58:56.496Z,44.70
2023-01-28T12:01:24.867Z,44.28
2023-01-28T12:03:59.517Z,44.36
2023-01-28T12:06:28.710Z,44.22
2023-01-28T12:09:07.962Z,45.31
2023-01-28T12:12:04.858Z,44.40
2023-01-28T12:14:42.275Z,44.35
2023-01-28T12:17:20.771Z,44.76
2023-01-28T12:19:58.956Z,42.89
2023-01-28T12:22:31.344Z,41.40
2023-01-28T12:25:07.117Z,41.96
2023-01-28T12:27:41.558Z,43.58
2023-01-28T12:30:18.547Z,42.12
2023-01-28T12:33:07.157Z,39.84
2023-01-28T12:35:43.483Z,39.90
2023-01-28T12:38:12.909Z,40.57
2023-01-28T12:40:47.337Z,40.17
2023-01-28T12:43:25.288Z,41.18
2023-01-28T12:45:58.226Z,39.34
2023-01-28T12:48:27.428Z,39.10
2023-01-28T12:50:55.199Z,39.58
2023-01-28T12:53:40.308Z,38.83
2023-01-28T12:56:08.639Z,37.99
2023-01-28T12:58:37.086Z,37.47
2023-01-28T13:01:04.840Z,36.77
2023-01-28T13:03:35.629Z,40.14
2023-01-28T13:06:02.694Z,39.73
2023-01-28T13:08:29.143Z,39.41
2023-01-28T13:10:56.739Z,39.44
2023-01-28T13:13:30.987Z,39.72
2023-01-28T13:15:57.312Z,40.44
2023-01-28T13:18:30.451Z,41.05
2023-01-28T13:20:56.795Z,40.76
2023-01-28T13:23:25.778Z,41.09
2023-01-28T13:25:53.025Z,40.83
2023-01-28T13:28:37.390Z,41.05
2023-01-28T13:31:05.050Z,41.40
2023-01-28T13:33:32.448Z,41.57
2023-01-28T13:35:58.784Z,41.53
2023-01-28T13:38:25.106Z,41.58
2023-01-28T13:40:55.079Z,41.87
2023-01-28T13:43:28.793Z,41.95
2023-01-28T13:45:56.127Z,41.86
2023-01-28T13:48:32.661Z,41.89
2023-01-28T13:50:58.989Z,41.86
2023-01-28T13:53:30.475Z,42.01
2023-01-28T13:55:57.418Z,42.23
2023-01-28T13:58:42.554Z,42.19
2023-01-28T14:01:27.728Z,42.30
2023-01-28T14:03:57.491Z,42.27
2023-01-28T14:06:50.176Z,42.35
2023-01-28T14:09:20.506Z,42.24
2023-01-28T14:12:07.653Z,42.53
2023-01-28T14:14:43.515Z,42.35
2023-01-28T14:17:13.007Z,42.65
2023-01-28T14:19:39.330Z,42.57
2023-01-28T14:22:09.061Z,42.68
2023-01-28T14:24:36.730Z,42.65
2023-01-28T14:27:06.171Z,42.57
2023-01-28T14:29:51.264Z,42.62
2023-01-28T14:32:28.576Z,42.75
2023-01-28T14:34:55.438Z,42.78
2023-01-28T14:37:22.845Z,42.70
2023-01-28T14:39:51.077Z,42.79
2023-01-28T14:42:21.226Z,42.65
2023-01-28T14:44:48.457Z,42.92
2023-01-28T14:47:20.695Z,42.74
2023-01-28T14:49:46.948Z,42.74
2023-01-28T14:52:20.205Z,42.73
2023-01-28T14:54:48.132Z,42.66
2023-01-28T14:57:16.540Z,42.56
2023-01-28T14:59:43.990Z,42.74
2023-01-28T15:02:12.432Z,42.51
2023-01-28T15:04:38.783Z,42.71
2023-01-28T15:07:18.644Z,42.51
2023-01-28T15:09:44.958Z,42.60
2023-01-28T15:12:11.305Z,42.63
2023-01-28T15:14:37.918Z,42.77
2023-01-28T15:17:04.735Z,42.67
2023-01-28T15:19:32.066Z,42.74
2023-01-28T15:22:05.815Z,42.68
2023-01-28T15:24:32.391Z,42.81
2023-01-28T15:26:58.786Z,42.83
2023-01-28T15:29:35.221Z,42.88
2023-01-28T15:32:01.574Z,42.83
2023-01-28T15:34:30.944Z,42.78
2023-01-28T15:36:57.681Z,42.75
2023-01-28T15:39:24.443Z,42.78
2023-01-28T15:42:01.151Z,42.71
2023-01-28T15:44:31.343Z,42.90
2023-01-28T15:47:01.257Z,42.84
2023-01-28T15:49:28.448Z,42.63
2023-01-28T15:51:54.796Z,42.83
2023-01-28T15:54:21.177Z,42.71
2023-01-28T15:56:47.527Z,42.80
2023-01-28T15:59:17.707Z,42.91
2023-01-28T16:01:44.039Z,42.75
2023-01-28T16:04:23.634Z,42.96
2023-01-28T16:06:50.030Z,42.93
2023-01-28T16:09:20.854Z,42.85
2023-01-28T16:11:47.196Z,42.93
2023-01-28T16:14:20.791Z,42.97
2023-01-28T16:16:47.180Z,42.87
2023-01-28T16:19:18.630Z,42.98
2023-01-28T16:21:45.005Z,42.89
2023-01-28T16:24:22.854Z,42.84
2023-01-28T16:26:59.268Z,42.94
2023-01-28T16:29:25.633Z,42.86
2023-01-28T16:31:52.023Z,42.92
2023-01-28T16:34:18.401Z,42.80
2023-01-28T16:36:44.737Z,42.83
2023-01-28T16:39:11.071Z,42.78
2023-01-28T16:41:38.749Z,42.92
2023-01-28T16:44:05.902Z,42.71
2023-01-28T16:46:33.453Z,42.85
2023-01-28T16:48:59.816Z,42.84
2023-01-28T16:51:26.133Z,42.95
2023-01-28T16:53:52.437Z,42.97
2023-01-28T16:56:35.716Z,43.07
2023-01-28T16:59:06.132Z,42.98
2023-01-28T17:01:32.473Z,43.21
2023-01-28T17:03:58.940Z,43.21
2023-01-28T17:06:25.296Z,43.04
2023-01-28T17:08:51.645Z,42.96
2023-01-28T17:11:17.989Z,42.98
2023-01-28T17:13:44.351Z,42.99
2023-01-28T17:16:10.718Z,42.86
2023-01-28T17:18:37.048Z,42.86
2023-01-28T17:21:04.091Z,42.97
2023-01-28T17:23:30.441Z,42.95
2023-01-28T17:25:56.759Z,42.83
2023-01-28T17:28:23.100Z,42.83
2023-01-28T17:30:49.491Z,42.79
2023-01-28T17:33:15.866Z,42.77
2023-01-28T17:35:45.270Z,42.90
2023-01-28T17:38:11.581Z,42.81
2023-01-28T17:40:37.970Z,42.75
2023-01-28T17:43:04.301Z,43.04
2023-01-28T17:45:31.223Z,42.89
2023-01-28T17:47:57.620Z,42.81
2023-01-28T17:50:23.974Z,43.44
2023-01-28T17:52:56.426Z,43.06
2023-01-28T17:55:23.150Z,42.90
2023-01-28T17:57:49.637Z,42.80
2023-01-28T18:00:16.163Z,42.73
2023-01-28T18:02:42.485Z,42.95
2023-01-28T18:05:08.929Z,42.74
2023-01-28T18:07:35.261Z,42.64
2023-01-28T18:10:01.597Z,43.21
2023-01-28T18:12:27.926Z,43.21
2023-01-28T18:14:54.256Z,42.98
2023-01-28T18:17:22.746Z,42.75
2023-01-28T18:19:49.096Z,42.67
2023-01-28T18:22:15.429Z,42.53
2023-01-28T18:24:41.746Z,42.53
2023-01-28T18:27:08.106Z,42.69
2023-01-28T18:29:34.419Z,42.59
2023-01-28T18:32:00.857Z,42.64
2023-01-28T18:34:27.765Z,42.73
2023-01-28T18:36:54.092Z,42.70
2023-01-28T18:39:20.549Z,42.96
2023-01-28T18:41:46.856Z,42.70
2023-01-28T18:44:13.423Z,42.82
2023-01-28T18:46:39.850Z,42.89
2023-01-28T18:49:06.178Z,42.92
2023-01-28T18:51:32.497Z,43.13
2023-01-28T18:53:58.939Z,42.93
2023-01-28T18:56:25.433Z,43.03
2023-01-28T18:59:15.073Z,42.96
2023-01-28T19:01:42.570Z,43.02
2023-01-28T19:04:08.998Z,42.77
2023-01-28T19:06:35.306Z,43.00
2023-01-28T19:09:05.859Z,42.99
2023-01-28T19:11:32.179Z,42.83
2023-01-28T19:13:58.507Z,42.84
2023-01-28T19:16:24.878Z,42.94
2023-01-28T19:18:54.681Z,42.85
2023-01-28T19:21:21.349Z,43.00
2023-01-28T19:23:50.164Z,43.01
2023-01-28T19:26:20.931Z,42.90
2023-01-28T19:28:48.170Z,42.93
2023-01-28T19:31:14.541Z,42.83
2023-01-28T19:33:41.297Z,42.89
2023-01-28T19:36:07.688Z,42.99
2023-01-28T19:38:34.019Z,42.94
2023-01-28T19:41:06.845Z,43.00
2023-01-28T19:43:33.944Z,43.12
2023-01-28T19:46:00.967Z,43.02
2023-01-28T19:48:27.343Z,43.01
2023-01-28T19:50:53.654Z,43.15
2023-01-28T19:53:20.031Z,43.08
2023-01-28T19:55:46.362Z,43.05
2023-01-28T19:58:12.704Z,43.21
2023-01-28T20:00:39.031Z,43.04
2023-01-28T20:03:07.802Z,43.02
2023-01-28T20:05:34.541Z,43.21
2023-01-28T20:08:00.869Z,42.89
2023-01-28T20:10:27.193Z,43.09
2023-01-28T20:12:53.539Z,43.05
2023-01-28T20:15:19.857Z,42.87
2023-01-28T20:17:46.611Z,42.95
2023-01-28T20:20:13.222Z,42.89
2023-01-28T20:22:39.594Z,43.04
2023-01-28T20:25:06.288Z,42.75
2023-01-28T20:27:32.669Z,42.94
2023-01-28T20:29:59.012Z,42.81
2023-01-28T20:32:25.488Z,43.12
2023-01-28T20:34:51.898Z,42.42
2023-01-28T20:37:18.387Z,42.22
2023-01-28T20:39:44.788Z,42.37
2023-01-28T20:42:13.157Z,35.62
2023-01-28T20:44:39.785Z,37.13
2023-01-28T20:47:06.168Z,38.47
2023-01-28T20:49:32.744Z,40.79
2023-01-28T20:51:59.108Z,39.69
2023-01-28T20:54:25.538Z,40.42
2023-01-28T20:56:52.285Z,40.56
2023-01-28T20:59:19.275Z,40.67
2023-01-28T21:01:45.695Z,41.37
2023-01-28T21:04:12.063Z,41.09
2023-01-28T21:06:38.408Z,41.06
2023-01-28T21:09:04.751Z,41.24
2023-01-28T21:11:31.154Z,41.45
2023-01-28T21:13:57.489Z,41.36
2023-01-28T21:16:23.884Z,41.59
2023-01-28T21:18:50.411Z,41.52
2023-01-28T21:21:17.806Z,41.64
2023-01-28T21:23:44.227Z,41.61
2023-01-28T21:26:10.570Z,41.67
2023-01-28T21:28:36.911Z,41.68
2023-01-28T21:31:07.112Z,41.68
2023-01-28T21:33:33.527Z,41.65
2023-01-28T21:35:59.872Z,41.80
2023-01-28T21:38:26.191Z,41.83
2023-01-28T21:40:52.647Z,41.93
2023-01-28T21:43:19.156Z,42.02
2023-01-28T21:45:47.698Z,42.10
2023-01-28T21:48:14.035Z,41.98
2023-01-28T21:51:00.331Z,42.18
2023-01-28T21:53:26.670Z,42.11
2023-01-28T21:55:52.994Z,42.20
2023-01-28T21:58:38.114Z,42.18
2023-01-28T22:01:10.369Z,42.44
2023-01-28T22:03:36.685Z,42.42
2023-01-28T22:06:02.996Z,42.56
2023-01-28T22:08:29.323Z,42.49
2023-01-28T22:10:56.635Z,42.43
2023-01-28T22:13:22.970Z,42.67
2023-01-28T22:15:49.312Z,42.58
2023-01-28T22:18:15.648Z,42.74
2023-01-28T22:20:41.998Z,42.55
2023-01-28T22:23:08.334Z,42.58
2023-01-28T22:25:35.125Z,42.69
2023-01-28T22:28:01.453Z,42.58
2023-01-28T22:30:27.770Z,42.68
2023-01-28T22:32:54.095Z,42.46
2023-01-28T22:35:20.417Z,42.42
2023-01-28T22:37:46.770Z,42.60
2023-01-28T22:40:13.262Z,42.67
2023-01-28T22:42:39.769Z,42.70
2023-01-28T22:45:06.528Z,42.62
2023-01-28T22:47:32.850Z,42.67
2023-01-28T22:49:59.213Z,42.68
2023-01-28T22:52:25.554Z,42.83
2023-01-28T22:54:52.021Z,42.63
2023-01-28T22:57:18.352Z,42.65
2023-01-28T22:59:59.238Z,42.72
2023-01-28T23:02:26.303Z,42.77
2023-01-28T23:04:52.686Z,42.81
2023-01-28T23:07:19.054Z,42.70
2023-01-28T23:09:45.380Z,42.64
2023-01-28T23:12:11.747Z,42.78
2023-01-28T23:14:56.575Z,42.79
2023-01-28T23:17:41.396Z,42.73
2023-01-28T23:20:27.882Z,42.83
2023-01-28T23:23:12.707Z,42.95
2023-01-28T23:25:39.026Z,42.85
2023-01-28T23:28:05.337Z,42.67
2023-01-28T23:30:31.694Z,42.62
2023-01-28T23:32:58.090Z,42.77
2023-01-28T23:35:27.204Z,42.88
2023-01-28T23:37:54.142Z,42.75
2023-01-28T23:40:23.817Z,42.90
2023-01-28T23:42:50.516Z,42.77
2023-01-28T23:45:17.239Z,42.66
2023-01-28T23:47:43.591Z,42.87
2023-01-28T23:50:10.176Z,43.01
2023-01-28T23:52:36.564Z,42.94
2023-01-28T23:55:02.923Z,43.03
2023-01-28T23:57:29.249Z,43.23
2023-01-28T23:59:55.666Z,43.16
